Chanute Martin Johnson Airport
KCNU : now visible

Airfield :











YOU CAN JOIN US ON...

 
LOGIN :

Register | Disclaimer

   EN    FR    IT 

 









Legend :    VFR   Marginal VFR   IFR   Intensive IFR   Very Intensive IFR
Visi :
Ceiling :
>= 8 km
>= 3000ft
5 to 8 km
1000 to 3000 ft
1500m to 5 km
500 to 1000 ft
800 to 1500m
200 to 500 ft
< 800m
< 200 ft
Symbols :   Thunderstorms  Fog  Heavy snow  Heavy precipitations  Wind > 20 kt







- Airport Elevation : 1002 ft


KCNU - Chanute Martin Johnson

CURRENT METAR :
  • 230952Z AUTO 35007KT 10SM SCT034 BKN050 14/10 A3006 RMK AO2 SLP173 T01440100

EXPIRED METARs :
  • 230852Z AUTO 02005KT 10SM SCT035 OVC049 16/10 A3006 RMK AO2 SLP172 T01560100 51001
  • 230752Z AUTO 03007KT 10SM OVC039 16/10 A3006 RMK AO2 SLP172 T01610100

TAF KCNU
Valid from the 23 at 06:00 until the 24 at 06:00 UTC


230520Z 2306/2406 36009KT P6SM BKN045
FM231000 01008KT P6SM VCSH BKN060
FM231200 01008KT 6SM -SHRA BR OVC025
FM231700 02008KT P6SM VCSH OVC040
FM240300 VRB04KT P6SM BKN080
KZKC FIR / North America



MET'MAP, your aeronautical weather chart ! - Copyright ORBIFLY December 2007 - Disclaimer

ORBIFLY MET'MAP TEAM :

Programming & Development : Alexandra Zaïnal
Concept & Development : Baudouin d'Aumeries
Co-Development & Prog : Marc-Olivier Méhu
Technical & hardware support : Manuel Goepfert

Contact : metmap@orbifly.com




SOURCES & CREDITS :

   NOAA       Earth
Advisory